sensor_id;sensor_type;location;lat;lon;timestamp;P1;durP1;ratioP1;P2;durP2;ratioP2
47251;SDS011;32991;51.374;11.586;2023-07-13T00:00:47;3.28;;;1.70;;
47251;SDS011;32991;51.374;11.586;2023-07-13T00:03:13;3.25;;;1.45;;
47251;SDS011;32991;51.374;11.586;2023-07-13T00:05:40;2.83;;;1.80;;
47251;SDS011;32991;51.374;11.586;2023-07-13T00:08:07;3.85;;;1.50;;
47251;SDS011;32991;51.374;11.586;2023-07-13T00:10:38;3.47;;;1.60;;
47251;SDS011;32991;51.374;11.586;2023-07-13T00:13:07;4.35;;;1.67;;
47251;SDS011;32991;51.374;11.586;2023-07-13T00:15:34;4.43;;;1.77;;
47251;SDS011;32991;51.374;11.586;2023-07-13T00:18:02;3.63;;;1.65;;
47251;SDS011;32991;51.374;11.586;2023-07-13T00:20:28;4.53;;;1.70;;
47251;SDS011;32991;51.374;11.586;2023-07-13T00:22:55;4.03;;;1.50;;
47251;SDS011;32991;51.374;11.586;2023-07-13T00:25:22;3.65;;;1.55;;
47251;SDS011;32991;51.374;11.586;2023-07-13T00:27:54;5.13;;;1.77;;
47251;SDS011;32991;51.374;11.586;2023-07-13T00:30:22;5.43;;;1.98;;
47251;SDS011;32991;51.374;11.586;2023-07-13T00:32:49;3.78;;;1.70;;
47251;SDS011;32991;51.374;11.586;2023-07-13T00:35:26;4.63;;;1.75;;
47251;SDS011;32991;51.374;11.586;2023-07-13T00:37:53;6.70;;;2.00;;
47251;SDS011;32991;51.374;11.586;2023-07-13T00:40:19;5.82;;;1.85;;
47251;SDS011;32991;51.374;11.586;2023-07-13T00:42:46;3.22;;;1.90;;
47251;SDS011;32991;51.374;11.586;2023-07-13T00:48:25;3.67;;;1.90;;
47251;SDS011;32991;51.374;11.586;2023-07-13T00:50:55;4.05;;;1.98;;
47251;SDS011;32991;51.374;11.586;2023-07-13T00:53:23;5.70;;;1.70;;
47251;SDS011;32991;51.374;11.586;2023-07-13T00:55:51;3.75;;;1.83;;
47251;SDS011;32991;51.374;11.586;2023-07-13T00:58:20;5.18;;;1.85;;
47251;SDS011;32991;51.374;11.586;2023-07-13T01:00:47;2.42;;;1.67;;
47251;SDS011;32991;51.374;11.586;2023-07-13T01:03:15;6.00;;;2.20;;
47251;SDS011;32991;51.374;11.586;2023-07-13T01:05:41;4.90;;;2.15;;
47251;SDS011;32991;51.374;11.586;2023-07-13T01:08:09;2.53;;;2.15;;
47251;SDS011;32991;51.374;11.586;2023-07-13T01:10:36;6.13;;;2.08;;
47251;SDS011;32991;51.374;11.586;2023-07-13T01:13:09;4.18;;;2.22;;
47251;SDS011;32991;51.374;11.586;2023-07-13T01:18:06;3.40;;;2.20;;
47251;SDS011;32991;51.374;11.586;2023-07-13T01:20:33;4.35;;;1.90;;
47251;SDS011;32991;51.374;11.586;2023-07-13T01:23:07;6.95;;;2.15;;
47251;SDS011;32991;51.374;11.586;2023-07-13T01:25:36;7.18;;;2.10;;
47251;SDS011;32991;51.374;11.586;2023-07-13T01:28:05;4.93;;;2.08;;
47251;SDS011;32991;51.374;11.586;2023-07-13T01:30:32;5.57;;;2.08;;
47251;SDS011;32991;51.374;11.586;2023-07-13T01:33:01;4.82;;;2.30;;
47251;SDS011;32991;51.374;11.586;2023-07-13T01:35:28;7.32;;;2.40;;
47251;SDS011;32991;51.374;11.586;2023-07-13T01:37:54;5.15;;;2.05;;
47251;SDS011;32991;51.374;11.586;2023-07-13T01:40:23;5.80;;;1.98;;
47251;SDS011;32991;51.374;11.586;2023-07-13T01:42:50;3.90;;;1.90;;
47251;SDS011;32991;51.374;11.586;2023-07-13T01:45:19;3.95;;;2.10;;
47251;SDS011;32991;51.374;11.586;2023-07-13T01:47:46;6.82;;;2.00;;
47251;SDS011;32991;51.374;11.586;2023-07-13T01:50:13;2.92;;;1.88;;
47251;SDS011;32991;51.374;11.586;2023-07-13T01:52:39;5.38;;;1.90;;
47251;SDS011;32991;51.374;11.586;2023-07-13T01:55:06;5.47;;;1.85;;
47251;SDS011;32991;51.374;11.586;2023-07-13T01:57:33;5.50;;;1.95;;
47251;SDS011;32991;51.374;11.586;2023-07-13T02:00:02;5.28;;;2.55;;
47251;SDS011;32991;51.374;11.586;2023-07-13T02:02:40;4.18;;;2.05;;
47251;SDS011;32991;51.374;11.586;2023-07-13T02:05:11;5.78;;;2.20;;
47251;SDS011;32991;51.374;11.586;2023-07-13T02:07:40;8.05;;;2.15;;
47251;SDS011;32991;51.374;11.586;2023-07-13T02:10:07;5.85;;;2.42;;
47251;SDS011;32991;51.374;11.586;2023-07-13T02:12:35;4.00;;;2.17;;
47251;SDS011;32991;51.374;11.586;2023-07-13T02:15:03;7.75;;;1.98;;
47251;SDS011;32991;51.374;11.586;2023-07-13T02:17:30;6.18;;;1.90;;
47251;SDS011;32991;51.374;11.586;2023-07-13T02:19:57;4.10;;;2.08;;
47251;SDS011;32991;51.374;11.586;2023-07-13T02:22:23;5.68;;;2.17;;
47251;SDS011;32991;51.374;11.586;2023-07-13T02:24:50;4.03;;;2.00;;
47251;SDS011;32991;51.374;11.586;2023-07-13T02:27:17;5.30;;;2.20;;
47251;SDS011;32991;51.374;11.586;2023-07-13T02:29:44;4.43;;;2.10;;
47251;SDS011;32991;51.374;11.586;2023-07-13T02:32:10;3.28;;;1.80;;
47251;SDS011;32991;51.374;11.586;2023-07-13T02:34:37;4.57;;;2.22;;
47251;SDS011;32991;51.374;11.586;2023-07-13T02:37:03;6.45;;;2.30;;
47251;SDS011;32991;51.374;11.586;2023-07-13T02:39:30;4.35;;;1.88;;
47251;SDS011;32991;51.374;11.586;2023-07-13T02:41:59;3.97;;;2.35;;
47251;SDS011;32991;51.374;11.586;2023-07-13T02:44:26;4.95;;;2.10;;
47251;SDS011;32991;51.374;11.586;2023-07-13T02:46:54;5.88;;;2.28;;
47251;SDS011;32991;51.374;11.586;2023-07-13T02:49:21;5.05;;;2.28;;
47251;SDS011;32991;51.374;11.586;2023-07-13T02:51:47;4.07;;;1.88;;
47251;SDS011;32991;51.374;11.586;2023-07-13T02:54:14;4.25;;;2.08;;
47251;SDS011;32991;51.374;11.586;2023-07-13T02:56:40;5.47;;;2.08;;
47251;SDS011;32991;51.374;11.586;2023-07-13T02:59:07;8.38;;;2.10;;
47251;SDS011;32991;51.374;11.586;2023-07-13T03:01:34;3.33;;;2.10;;
47251;SDS011;32991;51.374;11.586;2023-07-13T03:04:02;3.70;;;2.03;;
47251;SDS011;32991;51.374;11.586;2023-07-13T03:06:32;4.35;;;2.08;;
47251;SDS011;32991;51.374;11.586;2023-07-13T03:08:59;6.25;;;3.05;;
47251;SDS011;32991;51.374;11.586;2023-07-13T03:11:29;3.72;;;2.13;;
47251;SDS011;32991;51.374;11.586;2023-07-13T03:14:04;5.35;;;2.25;;
47251;SDS011;32991;51.374;11.586;2023-07-13T03:16:34;3.80;;;1.88;;
47251;SDS011;32991;51.374;11.586;2023-07-13T03:19:01;7.45;;;2.30;;
47251;SDS011;32991;51.374;11.586;2023-07-13T03:21:28;3.35;;;1.75;;
47251;SDS011;32991;51.374;11.586;2023-07-13T03:23:55;4.00;;;2.20;;
47251;SDS011;32991;51.374;11.586;2023-07-13T03:26:22;5.38;;;2.28;;
47251;SDS011;32991;51.374;11.586;2023-07-13T03:28:49;4.25;;;2.10;;
47251;SDS011;32991;51.374;11.586;2023-07-13T03:31:23;3.10;;;1.77;;
47251;SDS011;32991;51.374;11.586;2023-07-13T03:33:53;5.40;;;1.90;;
47251;SDS011;32991;51.374;11.586;2023-07-13T03:36:22;5.45;;;2.35;;
47251;SDS011;32991;51.374;11.586;2023-07-13T03:38:54;5.32;;;2.38;;
47251;SDS011;32991;51.374;11.586;2023-07-13T03:41:33;6.10;;;2.22;;
47251;SDS011;32991;51.374;11.586;2023-07-13T03:44:00;5.55;;;2.35;;
47251;SDS011;32991;51.374;11.586;2023-07-13T03:46:27;5.20;;;2.10;;
47251;SDS011;32991;51.374;11.586;2023-07-13T03:48:55;3.78;;;2.00;;
47251;SDS011;32991;51.374;11.586;2023-07-13T03:51:22;6.80;;;2.00;;
47251;SDS011;32991;51.374;11.586;2023-07-13T03:53:48;4.63;;;2.55;;
47251;SDS011;32991;51.374;11.586;2023-07-13T03:56:17;4.57;;;2.33;;
47251;SDS011;32991;51.374;11.586;2023-07-13T03:58:45;3.15;;;2.03;;
47251;SDS011;32991;51.374;11.586;2023-07-13T04:01:16;3.95;;;2.10;;
47251;SDS011;32991;51.374;11.586;2023-07-13T04:03:44;7.43;;;2.17;;
47251;SDS011;32991;51.374;11.586;2023-07-13T04:06:15;2.30;;;2.08;;
47251;SDS011;32991;51.374;11.586;2023-07-13T04:08:51;3.92;;;2.13;;
47251;SDS011;32991;51.374;11.586;2023-07-13T04:11:19;3.28;;;2.20;;
47251;SDS011;32991;51.374;11.586;2023-07-13T04:13:48;3.08;;;1.83;;
47251;SDS011;32991;51.374;11.586;2023-07-13T04:16:15;3.90;;;2.03;;
47251;SDS011;32991;51.374;11.586;2023-07-13T04:18:42;4.00;;;1.90;;
47251;SDS011;32991;51.374;11.586;2023-07-13T04:21:09;5.00;;;1.95;;
47251;SDS011;32991;51.374;11.586;2023-07-13T04:23:36;6.65;;;2.08;;
47251;SDS011;32991;51.374;11.586;2023-07-13T04:26:03;3.40;;;2.05;;
47251;SDS011;32991;51.374;11.586;2023-07-13T04:28:30;6.95;;;2.50;;
47251;SDS011;32991;51.374;11.586;2023-07-13T04:30:57;3.67;;;2.03;;
47251;SDS011;32991;51.374;11.586;2023-07-13T04:33:23;3.60;;;2.08;;
47251;SDS011;32991;51.374;11.586;2023-07-13T04:35:50;3.92;;;1.98;;
47251;SDS011;32991;51.374;11.586;2023-07-13T04:38:23;5.18;;;2.00;;
47251;SDS011;32991;51.374;11.586;2023-07-13T04:40:51;4.57;;;2.17;;
47251;SDS011;32991;51.374;11.586;2023-07-13T04:43:18;4.40;;;1.90;;
47251;SDS011;32991;51.374;11.586;2023-07-13T04:45:45;4.93;;;1.92;;
47251;SDS011;32991;51.374;11.586;2023-07-13T04:48:11;3.67;;;1.90;;
47251;SDS011;32991;51.374;11.586;2023-07-13T04:50:38;6.32;;;1.80;;
47251;SDS011;32991;51.374;11.586;2023-07-13T04:53:05;3.45;;;1.98;;
47251;SDS011;32991;51.374;11.586;2023-07-13T04:55:32;5.03;;;2.00;;
47251;SDS011;32991;51.374;11.586;2023-07-13T04:57:59;7.63;;;2.25;;
47251;SDS011;32991;51.374;11.586;2023-07-13T05:00:26;3.85;;;1.90;;
47251;SDS011;32991;51.374;11.586;2023-07-13T05:02:54;6.35;;;1.75;;
47251;SDS011;32991;51.374;11.586;2023-07-13T05:05:21;4.13;;;1.48;;
47251;SDS011;32991;51.374;11.586;2023-07-13T05:07:48;3.50;;;2.13;;
47251;SDS011;32991;51.374;11.586;2023-07-13T05:10:15;5.07;;;2.08;;
47251;SDS011;32991;51.374;11.586;2023-07-13T05:12:41;4.55;;;1.90;;
47251;SDS011;32991;51.374;11.586;2023-07-13T05:15:10;5.53;;;2.00;;
47251;SDS011;32991;51.374;11.586;2023-07-13T05:17:37;5.35;;;1.92;;
47251;SDS011;32991;51.374;11.586;2023-07-13T05:20:06;3.33;;;1.70;;
47251;SDS011;32991;51.374;11.586;2023-07-13T05:22:33;4.68;;;1.60;;
47251;SDS011;32991;51.374;11.586;2023-07-13T05:25:03;5.70;;;1.83;;
47251;SDS011;32991;51.374;11.586;2023-07-13T05:27:34;4.75;;;1.73;;
47251;SDS011;32991;51.374;11.586;2023-07-13T05:30:01;3.45;;;1.90;;
47251;SDS011;32991;51.374;11.586;2023-07-13T05:32:28;4.32;;;1.77;;
47251;SDS011;32991;51.374;11.586;2023-07-13T05:34:55;5.65;;;2.13;;
47251;SDS011;32991;51.374;11.586;2023-07-13T05:37:21;3.78;;;1.70;;
47251;SDS011;32991;51.374;11.586;2023-07-13T05:39:48;3.70;;;1.77;;
47251;SDS011;32991;51.374;11.586;2023-07-13T05:42:14;7.43;;;1.75;;
47251;SDS011;32991;51.374;11.586;2023-07-13T05:44:41;4.50;;;2.10;;
47251;SDS011;32991;51.374;11.586;2023-07-13T05:47:07;3.55;;;1.60;;
47251;SDS011;32991;51.374;11.586;2023-07-13T05:49:34;3.75;;;1.80;;
47251;SDS011;32991;51.374;11.586;2023-07-13T05:52:01;3.00;;;1.60;;
47251;SDS011;32991;51.374;11.586;2023-07-13T05:54:28;2.53;;;1.45;;
47251;SDS011;32991;51.374;11.586;2023-07-13T05:56:55;3.95;;;1.60;;
47251;SDS011;32991;51.374;11.586;2023-07-13T05:59:21;4.70;;;1.52;;
47251;SDS011;32991;51.374;11.586;2023-07-13T06:01:48;2.95;;;1.65;;
47251;SDS011;32991;51.374;11.586;2023-07-13T06:04:15;3.50;;;1.45;;
47251;SDS011;32991;51.374;11.586;2023-07-13T06:09:09;3.75;;;1.73;;
47251;SDS011;32991;51.374;11.586;2023-07-13T06:11:35;2.63;;;1.30;;
47251;SDS011;32991;51.374;11.586;2023-07-13T06:14:03;3.53;;;1.40;;
47251;SDS011;32991;51.374;11.586;2023-07-13T06:16:30;3.90;;;1.58;;
47251;SDS011;32991;51.374;11.586;2023-07-13T06:18:56;3.38;;;1.67;;
47251;SDS011;32991;51.374;11.586;2023-07-13T06:21:24;2.40;;;1.33;;
47251;SDS011;32991;51.374;11.586;2023-07-13T06:23:51;4.82;;;1.30;;
47251;SDS011;32991;51.374;11.586;2023-07-13T06:28:45;2.88;;;1.20;;
47251;SDS011;32991;51.374;11.586;2023-07-13T06:31:12;2.45;;;1.20;;
47251;SDS011;32991;51.374;11.586;2023-07-13T06:33:39;5.20;;;1.23;;
47251;SDS011;32991;51.374;11.586;2023-07-13T06:36:06;6.10;;;1.40;;
47251;SDS011;32991;51.374;11.586;2023-07-13T06:38:34;4.93;;;1.35;;
47251;SDS011;32991;51.374;11.586;2023-07-13T06:41:01;3.13;;;1.20;;
47251;SDS011;32991;51.374;11.586;2023-07-13T06:43:27;3.80;;;1.30;;
47251;SDS011;32991;51.374;11.586;2023-07-13T06:45:55;4.40;;;1.23;;
47251;SDS011;32991;51.374;11.586;2023-07-13T06:48:22;5.00;;;1.45;;
47251;SDS011;32991;51.374;11.586;2023-07-13T06:50:49;8.30;;;1.70;;
47251;SDS011;32991;51.374;11.586;2023-07-13T06:53:17;4.07;;;1.48;;
47251;SDS011;32991;51.374;11.586;2023-07-13T06:55:44;5.28;;;1.17;;
47251;SDS011;32991;51.374;11.586;2023-07-13T06:58:11;5.45;;;1.25;;
47251;SDS011;32991;51.374;11.586;2023-07-13T07:00:38;4.97;;;1.33;;
47251;SDS011;32991;51.374;11.586;2023-07-13T07:03:06;3.40;;;1.40;;
47251;SDS011;32991;51.374;11.586;2023-07-13T07:05:34;3.53;;;1.40;;
47251;SDS011;32991;51.374;11.586;2023-07-13T07:08:01;4.88;;;1.50;;
47251;SDS011;32991;51.374;11.586;2023-07-13T07:10:29;3.80;;;1.30;;
47251;SDS011;32991;51.374;11.586;2023-07-13T07:12:56;4.15;;;1.60;;
47251;SDS011;32991;51.374;11.586;2023-07-13T07:15:23;5.05;;;1.45;;
47251;SDS011;32991;51.374;11.586;2023-07-13T07:17:49;3.45;;;1.65;;
47251;SDS011;32991;51.374;11.586;2023-07-13T07:20:16;4.97;;;1.40;;
47251;SDS011;32991;51.374;11.586;2023-07-13T07:22:43;4.57;;;1.50;;
47251;SDS011;32991;51.374;11.586;2023-07-13T07:25:09;4.82;;;1.70;;
47251;SDS011;32991;51.374;11.586;2023-07-13T07:27:36;4.13;;;1.40;;
47251;SDS011;32991;51.374;11.586;2023-07-13T07:30:05;4.70;;;1.58;;
47251;SDS011;32991;51.374;11.586;2023-07-13T07:32:37;5.68;;;1.73;;
47251;SDS011;32991;51.374;11.586;2023-07-13T07:35:06;7.35;;;1.75;;
47251;SDS011;32991;51.374;11.586;2023-07-13T07:37:33;5.60;;;1.83;;
47251;SDS011;32991;51.374;11.586;2023-07-13T07:40:09;4.30;;;1.50;;
47251;SDS011;32991;51.374;11.586;2023-07-13T07:42:39;7.43;;;1.90;;
47251;SDS011;32991;51.374;11.586;2023-07-13T07:45:05;4.13;;;1.48;;
47251;SDS011;32991;51.374;11.586;2023-07-13T07:47:32;5.07;;;1.50;;
47251;SDS011;32991;51.374;11.586;2023-07-13T07:50:03;3.05;;;1.30;;
47251;SDS011;32991;51.374;11.586;2023-07-13T07:52:33;4.07;;;1.67;;
47251;SDS011;32991;51.374;11.586;2023-07-13T07:55:08;4.95;;;1.55;;
47251;SDS011;32991;51.374;11.586;2023-07-13T07:57:40;8.00;;;1.90;;
47251;SDS011;32991;51.374;11.586;2023-07-13T08:00:10;5.60;;;1.90;;
47251;SDS011;32991;51.374;11.586;2023-07-13T08:02:40;4.78;;;1.40;;
47251;SDS011;32991;51.374;11.586;2023-07-13T08:05:27;4.15;;;1.50;;
47251;SDS011;32991;51.374;11.586;2023-07-13T08:07:57;4.45;;;1.52;;
47251;SDS011;32991;51.374;11.586;2023-07-13T08:10:23;5.57;;;1.70;;
47251;SDS011;32991;51.374;11.586;2023-07-13T08:12:50;6.20;;;1.83;;
47251;SDS011;32991;51.374;11.586;2023-07-13T08:15:19;4.43;;;1.92;;
47251;SDS011;32991;51.374;11.586;2023-07-13T08:17:47;6.65;;;1.95;;
47251;SDS011;32991;51.374;11.586;2023-07-13T08:20:14;8.07;;;1.90;;
47251;SDS011;32991;51.374;11.586;2023-07-13T08:22:41;3.90;;;1.63;;
47251;SDS011;32991;51.374;11.586;2023-07-13T08:25:08;3.75;;;1.80;;
47251;SDS011;32991;51.374;11.586;2023-07-13T08:27:34;5.15;;;1.73;;
47251;SDS011;32991;51.374;11.586;2023-07-13T08:30:01;7.63;;;2.08;;
47251;SDS011;32991;51.374;11.586;2023-07-13T08:32:28;3.28;;;1.77;;
47251;SDS011;32991;51.374;11.586;2023-07-13T08:37:21;5.38;;;2.10;;
47251;SDS011;32991;51.374;11.586;2023-07-13T08:39:48;4.32;;;1.90;;
47251;SDS011;32991;51.374;11.586;2023-07-13T08:45:22;7.55;;;1.83;;
47251;SDS011;32991;51.374;11.586;2023-07-13T08:47:54;4.10;;;1.73;;
47251;SDS011;32991;51.374;11.586;2023-07-13T08:50:25;4.07;;;1.50;;
47251;SDS011;32991;51.374;11.586;2023-07-13T08:52:55;6.43;;;1.92;;
47251;SDS011;32991;51.374;11.586;2023-07-13T08:55:23;5.95;;;1.67;;
47251;SDS011;32991;51.374;11.586;2023-07-13T08:58:09;5.05;;;1.48;;
47251;SDS011;32991;51.374;11.586;2023-07-13T09:00:58;2.70;;;1.50;;
47251;SDS011;32991;51.374;11.586;2023-07-13T09:03:37;6.15;;;1.63;;
47251;SDS011;32991;51.374;11.586;2023-07-13T09:06:07;5.07;;;1.73;;
47251;SDS011;32991;51.374;11.586;2023-07-13T09:08:46;4.25;;;1.52;;
47251;SDS011;32991;51.374;11.586;2023-07-13T09:11:23;5.15;;;1.70;;
47251;SDS011;32991;51.374;11.586;2023-07-13T09:14:06;6.47;;;1.98;;
47251;SDS011;32991;51.374;11.586;2023-07-13T09:16:54;5.55;;;1.30;;
47251;SDS011;32991;51.374;11.586;2023-07-13T09:19:26;2.40;;;1.42;;
47251;SDS011;32991;51.374;11.586;2023-07-13T09:21:55;5.43;;;1.60;;
47251;SDS011;32991;51.374;11.586;2023-07-13T09:24:31;3.35;;;1.50;;
47251;SDS011;32991;51.374;11.586;2023-07-13T09:29:52;3.33;;;1.45;;
47251;SDS011;32991;51.374;11.586;2023-07-13T09:32:22;4.70;;;1.38;;
47251;SDS011;32991;51.374;11.586;2023-07-13T09:34:54;3.78;;;1.42;;
47251;SDS011;32991;51.374;11.586;2023-07-13T09:37:21;8.90;;;1.85;;
47251;SDS011;32991;51.374;11.586;2023-07-13T09:39:51;5.22;;;1.35;;
47251;SDS011;32991;51.374;11.586;2023-07-13T09:42:20;3.22;;;1.20;;
47251;SDS011;32991;51.374;11.586;2023-07-13T09:44:56;2.97;;;1.40;;
47251;SDS011;32991;51.374;11.586;2023-07-13T09:47:26;3.03;;;1.20;;
47251;SDS011;32991;51.374;11.586;2023-07-13T09:49:58;3.05;;;1.35;;
47251;SDS011;32991;51.374;11.586;2023-07-13T09:55:32;4.07;;;1.58;;
47251;SDS011;32991;51.374;11.586;2023-07-13T09:58:04;4.10;;;1.55;;
47251;SDS011;32991;51.374;11.586;2023-07-13T10:00:37;3.85;;;1.42;;
47251;SDS011;32991;51.374;11.586;2023-07-13T10:05:44;2.65;;;1.20;;
47251;SDS011;32991;51.374;11.586;2023-07-13T10:10:51;2.90;;;1.10;;
47251;SDS011;32991;51.374;11.586;2023-07-13T10:13:30;4.60;;;1.27;;
47251;SDS011;32991;51.374;11.586;2023-07-13T10:16:00;2.10;;;1.00;;
47251;SDS011;32991;51.374;11.586;2023-07-13T10:18:27;2.13;;;0.90;;
47251;SDS011;32991;51.374;11.586;2023-07-13T10:21:12;2.00;;;1.10;;
47251;SDS011;32991;51.374;11.586;2023-07-13T10:23:45;2.95;;;1.00;;
47251;SDS011;32991;51.374;11.586;2023-07-13T10:26:19;2.40;;;0.90;;
47251;SDS011;32991;51.374;11.586;2023-07-13T10:28:51;2.30;;;0.88;;
47251;SDS011;32991;51.374;11.586;2023-07-13T10:33:46;2.90;;;1.20;;
47251;SDS011;32991;51.374;11.586;2023-07-13T10:36:18;2.28;;;1.30;;
47251;SDS011;32991;51.374;11.586;2023-07-13T10:38:48;2.03;;;1.15;;
47251;SDS011;32991;51.374;11.586;2023-07-13T10:41:17;2.38;;;1.25;;
47251;SDS011;32991;51.374;11.586;2023-07-13T10:43:46;4.00;;;1.40;;
47251;SDS011;32991;51.374;11.586;2023-07-13T10:46:17;2.55;;;1.75;;
47251;SDS011;32991;51.374;11.586;2023-07-13T10:48:47;3.40;;;1.05;;
47251;SDS011;32991;51.374;11.586;2023-07-13T10:53:43;3.33;;;1.00;;
47251;SDS011;32991;51.374;11.586;2023-07-13T10:58:39;3.50;;;0.80;;
47251;SDS011;32991;51.374;11.586;2023-07-13T11:01:16;1.38;;;0.65;;
47251;SDS011;32991;51.374;11.586;2023-07-13T11:03:49;2.67;;;0.93;;
47251;SDS011;32991;51.374;11.586;2023-07-13T11:06:30;3.55;;;1.00;;
47251;SDS011;32991;51.374;11.586;2023-07-13T11:09:17;2.10;;;0.80;;
47251;SDS011;32991;51.374;11.586;2023-07-13T11:11:44;1.55;;;0.70;;
47251;SDS011;32991;51.374;11.586;2023-07-13T11:14:31;3.25;;;0.70;;
47251;SDS011;32991;51.374;11.586;2023-07-13T11:17:24;3.05;;;1.00;;
47251;SDS011;32991;51.374;11.586;2023-07-13T11:19:51;3.75;;;1.23;;
47251;SDS011;32991;51.374;11.586;2023-07-13T11:22:24;2.03;;;0.95;;
47251;SDS011;32991;51.374;11.586;2023-07-13T11:30:23;3.15;;;1.00;;
47251;SDS011;32991;51.374;11.586;2023-07-13T11:35:36;1.38;;;0.80;;
47251;SDS011;32991;51.374;11.586;2023-07-13T11:38:10;2.05;;;0.70;;
47251;SDS011;32991;51.374;11.586;2023-07-13T11:40:40;0.77;;;0.70;;
47251;SDS011;32991;51.374;11.586;2023-07-13T11:43:07;1.08;;;0.70;;
47251;SDS011;32991;51.374;11.586;2023-07-13T11:45:33;2.90;;;0.90;;
47251;SDS011;32991;51.374;11.586;2023-07-13T11:48:24;0.95;;;0.70;;
47251;SDS011;32991;51.374;11.586;2023-07-13T11:51:00;2.15;;;0.70;;
47251;SDS011;32991;51.374;11.586;2023-07-13T11:53:29;1.80;;;0.80;;
47251;SDS011;32991;51.374;11.586;2023-07-13T11:56:00;4.07;;;3.75;;
47251;SDS011;32991;51.374;11.586;2023-07-13T11:58:27;3.40;;;1.00;;
47251;SDS011;32991;51.374;11.586;2023-07-13T12:00:55;1.40;;;0.77;;
47251;SDS011;32991;51.374;11.586;2023-07-13T12:03:24;5.97;;;0.90;;
47251;SDS011;32991;51.374;11.586;2023-07-13T12:05:55;1.40;;;0.70;;
47251;SDS011;32991;51.374;11.586;2023-07-13T12:08:28;1.05;;;0.70;;
47251;SDS011;32991;51.374;11.586;2023-07-13T12:10:56;2.53;;;0.80;;
47251;SDS011;32991;51.374;11.586;2023-07-13T12:13:27;2.50;;;0.80;;
47251;SDS011;32991;51.374;11.586;2023-07-13T12:15:55;2.10;;;0.90;;
47251;SDS011;32991;51.374;11.586;2023-07-13T12:18:23;5.15;;;0.70;;
47251;SDS011;32991;51.374;11.586;2023-07-13T12:20:55;2.60;;;1.00;;
47251;SDS011;32991;51.374;11.586;2023-07-13T12:23:29;3.03;;;1.00;;
47251;SDS011;32991;51.374;11.586;2023-07-13T12:25:58;0.95;;;0.77;;
47251;SDS011;32991;51.374;11.586;2023-07-13T12:28:32;4.22;;;1.33;;
47251;SDS011;32991;51.374;11.586;2023-07-13T12:30:59;2.07;;;0.80;;
47251;SDS011;32991;51.374;11.586;2023-07-13T12:33:28;4.07;;;0.77;;
47251;SDS011;32991;51.374;11.586;2023-07-13T12:35:55;1.85;;;0.88;;
47251;SDS011;32991;51.374;11.586;2023-07-13T12:38:26;1.83;;;1.13;;
47251;SDS011;32991;51.374;11.586;2023-07-13T12:40:53;3.10;;;0.98;;
47251;SDS011;32991;51.374;11.586;2023-07-13T12:43:20;6.10;;;0.93;;
47251;SDS011;32991;51.374;11.586;2023-07-13T12:45:55;2.95;;;0.90;;
47251;SDS011;32991;51.374;11.586;2023-07-13T12:48:26;4.13;;;0.93;;
47251;SDS011;32991;51.374;11.586;2023-07-13T12:51:11;1.75;;;0.93;;
47251;SDS011;32991;51.374;11.586;2023-07-13T12:53:40;1.83;;;1.27;;
47251;SDS011;32991;51.374;11.586;2023-07-13T12:56:09;2.10;;;0.90;;
47251;SDS011;32991;51.374;11.586;2023-07-13T12:58:45;2.67;;;0.90;;
47251;SDS011;32991;51.374;11.586;2023-07-13T13:01:15;1.33;;;0.90;;
47251;SDS011;32991;51.374;11.586;2023-07-13T13:03:46;3.20;;;1.00;;
47251;SDS011;32991;51.374;11.586;2023-07-13T13:08:42;3.50;;;0.90;;
47251;SDS011;32991;51.374;11.586;2023-07-13T13:11:10;1.85;;;0.93;;
47251;SDS011;32991;51.374;11.586;2023-07-13T13:13:36;2.38;;;0.80;;
47251;SDS011;32991;51.374;11.586;2023-07-13T13:18:59;2.63;;;0.93;;
47251;SDS011;32991;51.374;11.586;2023-07-13T13:21:29;2.58;;;0.88;;
47251;SDS011;32991;51.374;11.586;2023-07-13T13:23:55;3.85;;;1.20;;
47251;SDS011;32991;51.374;11.586;2023-07-13T13:26:22;1.17;;;0.85;;
47251;SDS011;32991;51.374;11.586;2023-07-13T13:28:49;4.40;;;1.05;;
47251;SDS011;32991;51.374;11.586;2023-07-13T13:31:16;3.13;;;1.03;;
47251;SDS011;32991;51.374;11.586;2023-07-13T13:33:43;2.45;;;1.00;;
47251;SDS011;32991;51.374;11.586;2023-07-13T13:36:13;1.00;;;0.90;;
47251;SDS011;32991;51.374;11.586;2023-07-13T13:38:40;2.00;;;1.00;;
47251;SDS011;32991;51.374;11.586;2023-07-13T13:41:07;1.98;;;0.90;;
47251;SDS011;32991;51.374;11.586;2023-07-13T13:43:36;1.20;;;0.93;;
47251;SDS011;32991;51.374;11.586;2023-07-13T13:46:02;1.98;;;1.00;;
47251;SDS011;32991;51.374;11.586;2023-07-13T13:48:39;1.98;;;0.80;;
47251;SDS011;32991;51.374;11.586;2023-07-13T13:51:18;1.40;;;0.95;;
47251;SDS011;32991;51.374;11.586;2023-07-13T13:53:46;3.25;;;1.25;;
47251;SDS011;32991;51.374;11.586;2023-07-13T13:56:14;1.73;;;0.93;;
47251;SDS011;32991;51.374;11.586;2023-07-13T13:58:41;2.25;;;1.17;;
47251;SDS011;32991;51.374;11.586;2023-07-13T14:01:18;3.20;;;0.95;;
47251;SDS011;32991;51.374;11.586;2023-07-13T14:03:46;2.17;;;1.00;;
47251;SDS011;32991;51.374;11.586;2023-07-13T14:06:15;4.05;;;1.10;;
47251;SDS011;32991;51.374;11.586;2023-07-13T14:08:45;4.18;;;0.98;;
47251;SDS011;32991;51.374;11.586;2023-07-13T14:11:14;4.35;;;1.10;;
47251;SDS011;32991;51.374;11.586;2023-07-13T14:13:50;6.40;;;1.30;;
47251;SDS011;32991;51.374;11.586;2023-07-13T14:16:19;2.65;;;1.10;;
47251;SDS011;32991;51.374;11.586;2023-07-13T14:18:48;1.70;;;0.90;;
47251;SDS011;32991;51.374;11.586;2023-07-13T14:21:20;1.85;;;0.90;;
47251;SDS011;32991;51.374;11.586;2023-07-13T14:23:47;1.75;;;0.77;;
47251;SDS011;32991;51.374;11.586;2023-07-13T14:26:16;3.00;;;1.05;;
47251;SDS011;32991;51.374;11.586;2023-07-13T14:28:48;1.98;;;0.90;;
47251;SDS011;32991;51.374;11.586;2023-07-13T14:31:16;2.08;;;1.00;;
47251;SDS011;32991;51.374;11.586;2023-07-13T14:33:43;2.65;;;1.02;;
47251;SDS011;32991;51.374;11.586;2023-07-13T14:36:20;2.45;;;1.25;;
47251;SDS011;32991;51.374;11.586;2023-07-13T14:38:50;6.15;;;1.63;;
47251;SDS011;32991;51.374;11.586;2023-07-13T14:41:17;1.92;;;1.25;;
47251;SDS011;32991;51.374;11.586;2023-07-13T14:43:43;2.45;;;1.13;;
47251;SDS011;32991;51.374;11.586;2023-07-13T14:46:23;2.05;;;1.00;;
47251;SDS011;32991;51.374;11.586;2023-07-13T14:48:54;1.50;;;0.93;;
47251;SDS011;32991;51.374;11.586;2023-07-13T14:53:53;3.03;;;1.00;;
47251;SDS011;32991;51.374;11.586;2023-07-13T14:56:19;3.83;;;1.23;;
47251;SDS011;32991;51.374;11.586;2023-07-13T14:58:46;4.38;;;1.20;;
47251;SDS011;32991;51.374;11.586;2023-07-13T15:01:13;1.90;;;1.10;;
47251;SDS011;32991;51.374;11.586;2023-07-13T15:03:41;2.20;;;0.80;;
47251;SDS011;32991;51.374;11.586;2023-07-13T15:06:11;3.80;;;1.30;;
47251;SDS011;32991;51.374;11.586;2023-07-13T15:08:39;2.95;;;1.05;;
47251;SDS011;32991;51.374;11.586;2023-07-13T15:11:09;2.08;;;0.80;;
47251;SDS011;32991;51.374;11.586;2023-07-13T15:13:39;3.63;;;1.00;;
47251;SDS011;32991;51.374;11.586;2023-07-13T15:16:10;4.03;;;1.00;;
47251;SDS011;32991;51.374;11.586;2023-07-13T15:18:45;5.07;;;1.23;;
47251;SDS011;32991;51.374;11.586;2023-07-13T15:21:14;2.17;;;1.00;;
47251;SDS011;32991;51.374;11.586;2023-07-13T15:23:47;2.15;;;1.00;;
47251;SDS011;32991;51.374;11.586;2023-07-13T15:26:14;4.00;;;1.38;;
47251;SDS011;32991;51.374;11.586;2023-07-13T15:28:44;1.48;;;1.00;;
47251;SDS011;32991;51.374;11.586;2023-07-13T15:31:17;5.05;;;1.05;;
47251;SDS011;32991;51.374;11.586;2023-07-13T15:33:45;4.60;;;0.80;;
47251;SDS011;32991;51.374;11.586;2023-07-13T15:36:15;2.50;;;1.17;;